Time;durP1;ratioP1;P1;durP2;ratioP2;P2;SDS_P1;SDS_P2;PMS_P1;PMS_P2;Temp;Humidity;BMP_temperature;BMP_pressure;BME280_temperature;BME280_humidity;BME280_pressure;Samples;Min_cycle;Max_cycle;Signal;HPM_P1;HPM_P2
2021/12/28 00:00:09;;;;;;;;;;;8.20;99.90;;;;;;4997341;28;20286;-77
2021/12/28 00:02:35;;;;;;;;;;;8.10;99.90;;;;;;4997918;28;19906;-79
2021/12/28 00:05:00;;;;;;;;;;;8.10;99.90;;;;;;4980824;28;19989;-78
2021/12/28 00:07:26;;;;;;;;;;;8.10;99.90;;;;;;4996857;28;19909;-82
2021/12/28 00:09:51;;;;;;;;;;;8.10;99.90;;;;;;4997477;28;20278;-77
2021/12/28 00:12:17;;;;;;;;;;;8.00;99.90;;;;;;4996943;28;19910;-76
2021/12/28 00:14:51;;;;;;;;;;;8.00;99.90;;;;;;4998127;28;19910;-78
2021/12/28 00:20:14;;;;;;;;;;;8.00;99.90;;;;;;4996661;28;20262;-77
2021/12/28 00:22:39;;;;;;;;;;;8.00;99.90;;;;;;4980346;28;19909;-77
2021/12/28 00:25:05;;;;;;;;;;;8.00;99.90;;;;;;4997549;28;20147;-78
2021/12/28 00:27:31;;;;;;;;;;;7.90;99.90;;;;;;4981377;28;19910;-81
2021/12/28 00:29:57;;;;;;;;;;;8.00;99.90;;;;;;4980489;28;19910;-77
2021/12/28 00:32:22;;;;;;;;;;;8.00;99.90;;;;;;4997490;28;19912;-77
2021/12/28 00:34:48;;;;;;;;;;;8.00;99.90;;;;;;4996465;28;19956;-77
2021/12/28 00:37:14;;;;;;;;;;;7.90;99.90;;;;;;4996728;28;20280;-78
2021/12/28 00:39:39;;;;;;;;;;;8.00;99.90;;;;;;4997067;28;19916;-77
2021/12/28 00:42:06;;;;;;;;;;;8.00;99.90;;;;;;4997637;28;19910;-77
2021/12/28 00:44:32;;;;;;;;;;;8.00;99.90;;;;;;4979794;28;19921;-83
2021/12/28 00:46:57;;;;;;;;;;;7.90;99.90;;;;;;4996072;28;19909;-77
2021/12/28 00:49:23;;;;;;;;;;;8.00;99.90;;;;;;4996426;28;19910;-76
2021/12/28 00:51:48;;;;;;;;;;;7.90;99.90;;;;;;4979827;28;19926;-76
2021/12/28 00:54:14;;;;;;;;;;;8.00;99.90;;;;;;4996038;28;19918;-77
2021/12/28 00:56:39;;;;;;;;;;;8.00;99.90;;;;;;4996436;28;19909;-77
2021/12/28 00:59:05;;;;;;;;;;;8.00;99.90;;;;;;4979779;28;19921;-78
2021/12/28 01:01:30;;;;;;;;;;;8.00;99.90;;;;;;4997554;28;20389;-78
2021/12/28 01:03:56;;;;;;;;;;;7.90;99.90;;;;;;4996165;28;20350;-77
2021/12/28 01:06:21;;;;;;;;;;;8.00;99.90;;;;;;4979550;28;19909;-76
2021/12/28 01:08:47;;;;;;;;;;;8.00;99.90;;;;;;4994791;28;20261;-76
2021/12/28 01:11:12;;;;;;;;;;;8.00;99.90;;;;;;4996090;28;19910;-77
2021/12/28 01:13:38;;;;;;;;;;;7.90;99.90;;;;;;4995945;28;19913;-78
2021/12/28 01:16:04;;;;;;;;;;;8.00;99.90;;;;;;4995670;28;19906;-78
2021/12/28 01:18:29;;;;;;;;;;;8.00;99.90;;;;;;4996951;28;20012;-75
2021/12/28 01:20:55;;;;;;;;;;;8.00;99.90;;;;;;4996946;28;19914;-77
2021/12/28 01:23:21;;;;;;;;;;;8.00;99.90;;;;;;4996690;28;19906;-77
2021/12/28 01:25:47;;;;;;;;;;;7.90;99.90;;;;;;4978811;28;20334;-77
2021/12/28 01:28:13;;;;;;;;;;;7.90;99.90;;;;;;4995212;28;20008;-77
2021/12/28 01:30:40;;;;;;;;;;;8.00;99.90;;;;;;4996535;28;20361;-78
2021/12/28 01:33:06;;;;;;;;;;;8.00;99.90;;;;;;4995000;28;19910;-77
2021/12/28 01:35:32;;;;;;;;;;;8.00;99.90;;;;;;4996263;28;19992;-77
2021/12/28 01:37:58;;;;;;;;;;;8.00;99.90;;;;;;4979018;28;20017;-78
2021/12/28 01:40:25;;;;;;;;;;;8.00;99.90;;;;;;4995482;28;19910;-76
2021/12/28 01:43:00;;;;;;;;;;;8.00;99.90;;;;;;4996335;28;19906;-77
2021/12/28 01:45:32;;;;;;;;;;;8.00;99.90;;;;;;4995204;28;19925;-77
2021/12/28 01:47:57;;;;;;;;;;;7.90;99.90;;;;;;4996302;28;19905;-83
2021/12/28 01:50:23;;;;;;;;;;;7.90;99.90;;;;;;4994956;28;19906;-77
2021/12/28 01:52:49;;;;;;;;;;;7.90;99.90;;;;;;4994595;28;20319;-77
2021/12/28 01:55:14;;;;;;;;;;;7.80;99.90;;;;;;4995892;28;19988;-78
2021/12/28 01:57:40;;;;;;;;;;;7.90;99.90;;;;;;4978845;28;20262;-85
2021/12/28 02:00:06;;;;;;;;;;;7.80;99.90;;;;;;4995143;28;20307;-77
2021/12/28 02:02:31;;;;;;;;;;;7.80;99.90;;;;;;4994734;28;20372;-76
2021/12/28 02:04:57;;;;;;;;;;;7.90;99.90;;;;;;4996159;28;19913;-77
2021/12/28 02:07:22;;;;;;;;;;;7.90;99.90;;;;;;4994669;28;19906;-77
2021/12/28 02:09:48;;;;;;;;;;;7.90;99.90;;;;;;4995203;28;19920;-78
2021/12/28 02:12:13;;;;;;;;;;;8.00;99.90;;;;;;4996028;28;19916;-77
2021/12/28 02:14:44;;;;;;;;;;;8.00;99.90;;;;;;4978280;28;20346;-78
2021/12/28 02:17:09;;;;;;;;;;;8.00;99.90;;;;;;4994370;28;19912;-77
2021/12/28 02:19:35;;;;;;;;;;;8.00;99.90;;;;;;4977913;28;19914;-77
2021/12/28 02:22:01;;;;;;;;;;;8.00;99.90;;;;;;4977984;28;20001;-78
2021/12/28 02:24:26;;;;;;;;;;;8.00;99.90;;;;;;4995354;28;19910;-77
2021/12/28 02:26:52;;;;;;;;;;;8.00;99.90;;;;;;4977923;28;19910;-77
2021/12/28 02:29:17;;;;;;;;;;;8.00;99.90;;;;;;4995382;28;19985;-78
2021/12/28 02:31:43;;;;;;;;;;;8.00;99.90;;;;;;4994319;28;20365;-81
2021/12/28 02:34:08;;;;;;;;;;;8.00;99.90;;;;;;4994064;28;19971;-79
2021/12/28 02:36:34;;;;;;;;;;;8.00;99.90;;;;;;4994099;28;19953;-77
2021/12/28 02:39:00;;;;;;;;;;;8.00;99.90;;;;;;4977781;28;20384;-77
2021/12/28 02:41:25;;;;;;;;;;;8.00;99.90;;;;;;4993981;28;20346;-78
2021/12/28 02:43:57;;;;;;;;;;;8.00;99.90;;;;;;4993583;28;20105;-77
2021/12/28 02:46:23;;;;;;;;;;;7.90;99.90;;;;;;4994223;28;19913;-76
2021/12/28 02:48:48;;;;;;;;;;;7.90;99.90;;;;;;4994130;28;19910;-78
2021/12/28 02:51:15;;;;;;;;;;;7.90;99.90;;;;;;4995036;28;20352;-78
2021/12/28 02:53:41;;;;;;;;;;;7.90;99.90;;;;;;4993740;28;19975;-77
2021/12/28 02:56:07;;;;;;;;;;;7.90;99.90;;;;;;4994286;28;20280;-78
2021/12/28 02:58:34;;;;;;;;;;;7.90;99.90;;;;;;4977405;28;19917;-77
2021/12/28 03:01:19;;;;;;;;;;;7.90;99.90;;;;;;4993585;28;19917;-77
2021/12/28 03:03:45;;;;;;;;;;;7.90;99.90;;;;;;4993993;28;20389;-76
2021/12/28 03:06:12;;;;;;;;;;;8.00;99.90;;;;;;4978176;28;19917;-78
2021/12/28 03:08:41;;;;;;;;;;;8.00;99.90;;;;;;4995136;28;19945;-78
2021/12/28 03:11:07;;;;;;;;;;;7.90;99.90;;;;;;4993752;28;19905;-76
2021/12/28 03:13:43;;;;;;;;;;;8.00;99.90;;;;;;4977326;28;19932;-77
2021/12/28 03:16:09;;;;;;;;;;;7.90;99.90;;;;;;4994160;28;19906;-77
2021/12/28 03:18:35;;;;;;;;;;;7.90;99.90;;;;;;4979094;28;19915;-78
2021/12/28 03:21:01;;;;;;;;;;;7.90;99.90;;;;;;4994843;28;19916;-77
2021/12/28 03:23:27;;;;;;;;;;;7.80;99.90;;;;;;4977480;28;20012;-77
2021/12/28 03:25:53;;;;;;;;;;;7.80;99.90;;;;;;4994583;28;19910;-78
2021/12/28 03:28:20;;;;;;;;;;;7.70;99.90;;;;;;4977141;28;19916;-78
2021/12/28 03:30:46;;;;;;;;;;;7.70;99.90;;;;;;4992667;28;20022;-78
2021/12/28 03:33:12;;;;;;;;;;;7.70;99.90;;;;;;4994348;28;19913;-78
2021/12/28 03:35:38;;;;;;;;;;;7.70;99.90;;;;;;4994386;28;19911;-78
2021/12/28 03:38:04;;;;;;;;;;;7.70;99.90;;;;;;4994721;28;19917;-77
2021/12/28 03:40:29;;;;;;;;;;;7.70;99.90;;;;;;4993228;28;19913;-78
2021/12/28 03:42:55;;;;;;;;;;;7.80;99.90;;;;;;4993295;28;19910;-78
2021/12/28 03:45:21;;;;;;;;;;;7.80;99.90;;;;;;4993054;28;19941;-77
2021/12/28 03:47:46;;;;;;;;;;;7.90;99.90;;;;;;4993425;28;20372;-78
2021/12/28 03:50:12;;;;;;;;;;;7.90;99.90;;;;;;4992812;28;19905;-78
2021/12/28 03:52:38;;;;;;;;;;;7.90;99.90;;;;;;4977145;28;19917;-77
2021/12/28 03:55:04;;;;;;;;;;;7.90;99.90;;;;;;4993107;28;19945;-78
2021/12/28 03:57:30;;;;;;;;;;;7.90;99.90;;;;;;4994589;28;19913;-78
2021/12/28 03:59:55;;;;;;;;;;;7.90;99.90;;;;;;4994474;28;20040;-88
2021/12/28 04:02:21;;;;;;;;;;;7.90;99.90;;;;;;4994047;28;19920;-77
2021/12/28 04:04:46;;;;;;;;;;;7.90;99.90;;;;;;4977708;28;19964;-77
2021/12/28 04:07:18;;;;;;;;;;;7.90;99.90;;;;;;4994340;28;19929;-77
2021/12/28 04:12:15;;;;;;;;;;;8.00;99.90;;;;;;4994572;28;19956;-78
2021/12/28 04:14:41;;;;;;;;;;;8.00;99.90;;;;;;4993233;28;19906;-76
2021/12/28 04:17:06;;;;;;;;;;;8.00;99.90;;;;;;4993173;28;19909;-78
2021/12/28 04:19:32;;;;;;;;;;;8.10;99.90;;;;;;4993825;28;20274;-78
2021/12/28 04:21:58;;;;;;;;;;;8.10;99.90;;;;;;4994328;28;19909;-79
2021/12/28 04:24:23;;;;;;;;;;;8.10;99.90;;;;;;4976312;28;19910;-77
2021/12/28 04:26:49;;;;;;;;;;;8.10;99.90;;;;;;4994493;28;19910;-77
2021/12/28 04:29:14;;;;;;;;;;;8.10;99.90;;;;;;4992763;28;19906;-78
2021/12/28 04:31:40;;;;;;;;;;;8.10;99.90;;;;;;4994354;28;20243;-77
2021/12/28 04:34:05;;;;;;;;;;;8.20;99.90;;;;;;4976583;28;20024;-77
2021/12/28 04:36:31;;;;;;;;;;;8.20;99.90;;;;;;4993084;28;19909;-77
2021/12/28 04:38:56;;;;;;;;;;;8.20;99.90;;;;;;4994094;28;19964;-77
2021/12/28 04:41:22;;;;;;;;;;;8.30;99.90;;;;;;4993470;28;19948;-77
2021/12/28 04:43:48;;;;;;;;;;;8.30;99.90;;;;;;4993886;28;19928;-78
2021/12/28 04:46:14;;;;;;;;;;;8.30;99.90;;;;;;4996447;28;20016;-76
2021/12/28 04:48:40;;;;;;;;;;;8.30;99.90;;;;;;4979835;28;19965;-76
2021/12/28 04:51:06;;;;;;;;;;;8.40;99.90;;;;;;4996959;28;19906;-78
2021/12/28 04:53:32;;;;;;;;;;;8.30;99.90;;;;;;4995957;28;19910;-77
2021/12/28 04:55:57;;;;;;;;;;;8.40;99.90;;;;;;4997239;28;20397;-77
2021/12/28 04:58:23;;;;;;;;;;;8.40;99.90;;;;;;4995965;28;19910;-77
2021/12/28 05:00:49;;;;;;;;;;;8.40;99.90;;;;;;4995935;28;19909;-77
2021/12/28 05:03:16;;;;;;;;;;;8.40;99.90;;;;;;4997058;28;19905;-78
2021/12/28 05:05:43;;;;;;;;;;;8.40;99.90;;;;;;4996701;28;19913;-76
2021/12/28 05:08:10;;;;;;;;;;;8.40;99.90;;;;;;4997232;28;19909;-77
2021/12/28 05:10:36;;;;;;;;;;;8.50;99.90;;;;;;4996008;28;19905;-76
2021/12/28 05:13:01;;;;;;;;;;;8.50;99.90;;;;;;4996518;28;20266;-77
2021/12/28 05:15:27;;;;;;;;;;;8.50;99.90;;;;;;4996827;28;19902;-77
2021/12/28 05:17:53;;;;;;;;;;;8.50;99.90;;;;;;4979345;28;20350;-77
2021/12/28 05:20:19;;;;;;;;;;;8.50;99.90;;;;;;4995410;28;19910;-76
2021/12/28 05:22:44;;;;;;;;;;;8.50;99.90;;;;;;4995379;28;19914;-76
2021/12/28 05:25:10;;;;;;;;;;;8.40;99.90;;;;;;4979471;28;19913;-85
2021/12/28 05:27:36;;;;;;;;;;;8.40;99.90;;;;;;4995036;28;19948;-77
2021/12/28 05:30:03;;;;;;;;;;;8.40;99.90;;;;;;4996588;28;20021;-77
2021/12/28 05:32:29;;;;;;;;;;;8.40;99.90;;;;;;4996125;28;20346;-78
2021/12/28 05:34:54;;;;;;;;;;;8.40;99.90;;;;;;4995374;28;19971;-77
2021/12/28 05:37:20;;;;;;;;;;;8.30;99.90;;;;;;4995168;28;19917;-76
2021/12/28 05:39:45;;;;;;;;;;;8.30;99.90;;;;;;4995317;28;19918;-76
2021/12/28 05:42:11;;;;;;;;;;;8.40;99.90;;;;;;4979167;28;20362;-76
2021/12/28 05:44:36;;;;;;;;;;;8.40;99.90;;;;;;4994840;28;19918;-77
2021/12/28 05:47:02;;;;;;;;;;;8.40;99.90;;;;;;4978574;28;19910;-77
2021/12/28 05:49:27;;;;;;;;;;;8.50;99.90;;;;;;4978883;28;19916;-76
2021/12/28 05:51:53;;;;;;;;;;;8.50;99.90;;;;;;4996581;28;19910;-76
2021/12/28 05:54:19;;;;;;;;;;;8.50;99.90;;;;;;4994247;28;19910;-77
2021/12/28 05:56:45;;;;;;;;;;;8.50;99.90;;;;;;4996101;28;19906;-77
2021/12/28 05:59:11;;;;;;;;;;;8.50;99.90;;;;;;4994691;28;19926;-77
2021/12/28 06:01:36;;;;;;;;;;;8.50;99.90;;;;;;4994806;28;19914;-75
2021/12/28 06:04:02;;;;;;;;;;;8.50;99.90;;;;;;4996891;28;20000;-78
2021/12/28 06:06:28;;;;;;;;;;;8.60;99.90;;;;;;4994634;28;19905;-77
2021/12/28 06:08:53;;;;;;;;;;;8.50;99.90;;;;;;4978516;28;19917;-77
2021/12/28 06:11:19;;;;;;;;;;;8.50;99.90;;;;;;4995583;28;20366;-83
2021/12/28 06:13:45;;;;;;;;;;;8.60;99.90;;;;;;4994629;28;19959;-79
2021/12/28 06:16:11;;;;;;;;;;;8.60;99.90;;;;;;4978332;28;19910;-77
2021/12/28 06:18:37;;;;;;;;;;;8.60;99.90;;;;;;4994393;28;19914;-76
2021/12/28 06:21:03;;;;;;;;;;;8.60;99.90;;;;;;4994291;28;19913;-78
2021/12/28 06:23:28;;;;;;;;;;;8.60;99.90;;;;;;4996317;28;20078;-78
2021/12/28 06:25:54;;;;;;;;;;;8.60;99.90;;;;;;4994426;28;19906;-78
2021/12/28 06:28:20;;;;;;;;;;;8.60;99.90;;;;;;4994321;28;19912;-84
2021/12/28 06:30:45;;;;;;;;;;;8.70;99.90;;;;;;4995706;28;20432;-77
2021/12/28 06:33:11;;;;;;;;;;;8.70;99.90;;;;;;4977980;28;19964;-78
2021/12/28 06:35:37;;;;;;;;;;;8.70;99.90;;;;;;4994130;28;19905;-78
2021/12/28 06:38:02;;;;;;;;;;;8.80;99.90;;;;;;4994180;28;19906;-78
2021/12/28 06:40:28;;;;;;;;;;;8.70;99.90;;;;;;4994254;28;19910;-78
2021/12/28 06:42:54;;;;;;;;;;;8.70;99.90;;;;;;4978750;28;20009;-78
2021/12/28 06:45:19;;;;;;;;;;;8.80;99.90;;;;;;4994811;28;19918;-78
2021/12/28 06:47:45;;;;;;;;;;;8.80;99.90;;;;;;4977946;28;19910;-76
2021/12/28 06:50:10;;;;;;;;;;;8.80;99.90;;;;;;4994137;28;19957;-76
2021/12/28 06:52:36;;;;;;;;;;;8.80;99.90;;;;;;4993839;28;20076;-78
2021/12/28 06:55:02;;;;;;;;;;;8.80;99.90;;;;;;4993732;28;20274;-78
2021/12/28 06:57:28;;;;;;;;;;;8.80;99.90;;;;;;4993657;28;19910;-76
2021/12/28 06:59:53;;;;;;;;;;;8.80;99.90;;;;;;4977328;28;19914;-79
2021/12/28 07:02:19;;;;;;;;;;;8.70;99.90;;;;;;4995440;28;19917;-77
2021/12/28 07:04:44;;;;;;;;;;;8.60;99.90;;;;;;4978289;28;19921;-78
2021/12/28 07:07:11;;;;;;;;;;;8.50;99.90;;;;;;4993264;28;20118;-78
2021/12/28 07:09:37;;;;;;;;;;;8.50;99.90;;;;;;4994945;28;19995;-77
2021/12/28 07:12:03;;;;;;;;;;;8.40;99.90;;;;;;4993690;28;20326;-78
2021/12/28 07:14:29;;;;;;;;;;;8.40;99.90;;;;;;4995284;28;19906;-79
2021/12/28 07:16:55;;;;;;;;;;;8.40;99.90;;;;;;4993546;28;19914;-78
2021/12/28 07:19:20;;;;;;;;;;;8.50;99.90;;;;;;4995348;28;19953;-79
2021/12/28 07:21:46;;;;;;;;;;;8.60;99.90;;;;;;4993875;28;20414;-79
2021/12/28 07:24:13;;;;;;;;;;;8.60;99.90;;;;;;4993595;28;19917;-78
2021/12/28 07:26:39;;;;;;;;;;;8.70;99.90;;;;;;4994530;28;20354;-79
2021/12/28 07:29:04;;;;;;;;;;;8.80;99.90;;;;;;4977167;28;19916;-81
2021/12/28 07:31:30;;;;;;;;;;;8.90;99.90;;;;;;4993450;28;19934;-80
2021/12/28 07:33:56;;;;;;;;;;;8.90;99.90;;;;;;4993333;28;19917;-79
2021/12/28 07:36:21;;;;;;;;;;;9.00;99.90;;;;;;4993569;28;20358;-80
2021/12/28 07:38:47;;;;;;;;;;;9.00;99.90;;;;;;4993340;28;19959;-80
2021/12/28 07:41:12;;;;;;;;;;;9.10;99.90;;;;;;4994190;28;19922;-79
2021/12/28 07:43:38;;;;;;;;;;;9.20;99.90;;;;;;4996150;28;20323;-79
2021/12/28 07:46:03;;;;;;;;;;;9.20;99.90;;;;;;4993422;28;19918;-79
2021/12/28 07:48:29;;;;;;;;;;;9.20;99.90;;;;;;4994841;28;19922;-84
2021/12/28 07:50:55;;;;;;;;;;;9.30;99.90;;;;;;4993430;28;19913;-80
2021/12/28 07:53:20;;;;;;;;;;;9.30;99.90;;;;;;4993326;28;20391;-77
2021/12/28 07:55:46;;;;;;;;;;;9.30;99.90;;;;;;4976933;28;19953;-77
2021/12/28 07:58:11;;;;;;;;;;;9.30;99.90;;;;;;4992804;28;19948;-77
2021/12/28 08:00:37;;;;;;;;;;;9.30;99.90;;;;;;4976620;28;20025;-77
2021/12/28 08:03:04;;;;;;;;;;;9.30;99.90;;;;;;4993949;28;19956;-77
2021/12/28 08:05:33;;;;;;;;;;;9.40;99.90;;;;;;4979254;28;19910;-78
2021/12/28 08:07:59;;;;;;;;;;;9.40;99.90;;;;;;4995350;28;19905;-78
2021/12/28 08:10:25;;;;;;;;;;;9.40;99.90;;;;;;4994224;28;19910;-77
2021/12/28 08:12:52;;;;;;;;;;;9.40;99.90;;;;;;4994432;28;19909;-77
2021/12/28 08:15:18;;;;;;;;;;;9.40;99.90;;;;;;4995913;28;20076;-79
2021/12/28 08:17:44;;;;;;;;;;;9.40;99.90;;;;;;4995668;28;20374;-78
2021/12/28 08:20:10;;;;;;;;;;;9.30;99.90;;;;;;4996453;28;19916;-77
2021/12/28 08:22:37;;;;;;;;;;;9.40;99.90;;;;;;4980987;28;19917;-78
2021/12/28 08:25:03;;;;;;;;;;;9.40;99.90;;;;;;4996482;28;19910;-78
2021/12/28 08:27:28;;;;;;;;;;;9.30;99.90;;;;;;4996076;28;19906;-77
2021/12/28 08:29:54;;;;;;;;;;;9.20;99.90;;;;;;4979724;28;20278;-77
2021/12/28 08:32:20;;;;;;;;;;;9.20;99.90;;;;;;4980100;28;19909;-77
2021/12/28 08:34:45;;;;;;;;;;;9.20;99.90;;;;;;4998087;28;19912;-76
2021/12/28 08:37:12;;;;;;;;;;;9.20;99.90;;;;;;4996443;28;20001;-78
2021/12/28 08:39:37;;;;;;;;;;;9.10;99.90;;;;;;4996218;28;19929;-85
2021/12/28 08:42:03;;;;;;;;;;;9.10;99.90;;;;;;4997231;28;19913;-78
2021/12/28 08:44:29;;;;;;;;;;;9.10;99.90;;;;;;4995843;28;19972;-78
2021/12/28 08:46:55;;;;;;;;;;;9.10;99.90;;;;;;4996055;28;20321;-78
2021/12/28 08:49:21;;;;;;;;;;;9.20;99.90;;;;;;4997622;28;19949;-78
2021/12/28 08:51:46;;;;;;;;;;;9.20;99.90;;;;;;4997371;28;20404;-78
2021/12/28 08:54:12;;;;;;;;;;;9.30;99.90;;;;;;4996734;28;19988;-79
2021/12/28 08:56:37;;;;;;;;;;;9.40;99.90;;;;;;4995446;28;19906;-83
2021/12/28 08:59:03;;;;;;;;;;;9.50;99.90;;;;;;4997023;28;19985;-78
2021/12/28 09:01:28;;;;;;;;;;;9.50;99.90;;;;;;4995964;28;20347;-78
2021/12/28 09:03:54;;;;;;;;;;;9.60;99.90;;;;;;4995684;28;20416;-78
2021/12/28 09:06:20;;;;;;;;;;;9.60;99.90;;;;;;4997081;28;20366;-78
2021/12/28 09:08:45;;;;;;;;;;;9.70;99.90;;;;;;4997541;28;20004;-79
2021/12/28 09:11:11;;;;;;;;;;;9.70;99.90;;;;;;4995957;28;19906;-78
2021/12/28 09:13:37;;;;;;;;;;;9.70;99.90;;;;;;4995968;28;19916;-78
2021/12/28 09:16:03;;;;;;;;;;;9.80;99.90;;;;;;4979454;28;20286;-79
2021/12/28 09:18:29;;;;;;;;;;;9.90;99.90;;;;;;4996023;28;19933;-79
2021/12/28 09:20:56;;;;;;;;;;;9.90;99.90;;;;;;4995819;28;20347;-78
2021/12/28 09:23:22;;;;;;;;;;;10.00;99.90;;;;;;4995646;28;19968;-78
2021/12/28 09:25:47;;;;;;;;;;;10.00;99.90;;;;;;4996423;28;19906;-79
2021/12/28 09:28:13;;;;;;;;;;;10.00;99.90;;;;;;4996594;28;19905;-78
2021/12/28 09:30:39;;;;;;;;;;;10.00;99.90;;;;;;4995531;28;19935;-78
2021/12/28 09:33:05;;;;;;;;;;;10.00;99.90;;;;;;4994994;28;19984;-78
2021/12/28 09:35:31;;;;;;;;;;;10.00;99.90;;;;;;4979480;28;19909;-78
2021/12/28 09:37:57;;;;;;;;;;;10.00;99.90;;;;;;4996119;28;19941;-78
2021/12/28 09:40:22;;;;;;;;;;;10.00;99.90;;;;;;4995961;28;20004;-78
2021/12/28 09:42:48;;;;;;;;;;;10.00;99.90;;;;;;4980757;28;19916;-78
2021/12/28 09:45:14;;;;;;;;;;;10.10;99.90;;;;;;4997497;28;19976;-78
2021/12/28 09:47:41;;;;;;;;;;;10.20;99.90;;;;;;4996203;28;19910;-79
2021/12/28 09:50:08;;;;;;;;;;;10.20;99.90;;;;;;4997595;28;19910;-78
2021/12/28 09:52:33;;;;;;;;;;;10.40;99.90;;;;;;4995870;28;19960;-79
2021/12/28 09:54:59;;;;;;;;;;;10.40;99.90;;;;;;4997364;28;19914;-77
2021/12/28 09:57:24;;;;;;;;;;;10.50;99.90;;;;;;4996369;28;19909;-79
2021/12/28 09:59:50;;;;;;;;;;;10.60;99.90;;;;;;4995198;28;19913;-79
2021/12/28 10:02:16;;;;;;;;;;;10.70;99.90;;;;;;4996531;28;19922;-80
2021/12/28 10:05:04;;;;;;;;;;;10.70;99.90;;;;;;4995042;28;20102;-80
2021/12/28 10:07:31;;;;;;;;;;;10.70;99.90;;;;;;4995894;28;19906;-80
2021/12/28 10:09:57;;;;;;;;;;;10.80;99.90;;;;;;4996188;28;19910;-79
2021/12/28 10:12:29;;;;;;;;;;;10.80;99.90;;;;;;4996674;28;19906;-79
2021/12/28 10:14:56;;;;;;;;;;;10.80;99.90;;;;;;4996144;28;19929;-78
2021/12/28 10:17:25;;;;;;;;;;;10.90;99.90;;;;;;4997306;28;20017;-79
2021/12/28 10:19:51;;;;;;;;;;;11.00;99.90;;;;;;4979390;28;19920;-79
2021/12/28 10:22:21;;;;;;;;;;;11.00;99.90;;;;;;4996631;28;19914;-78
2021/12/28 10:24:49;;;;;;;;;;;11.10;99.90;;;;;;4996387;28;19910;-86
2021/12/28 10:27:15;;;;;;;;;;;11.20;99.90;;;;;;4996479;28;19906;-78
2021/12/28 10:29:41;;;;;;;;;;;11.20;99.90;;;;;;4996696;28;19905;-78
2021/12/28 10:32:21;;;;;;;;;;;11.20;99.90;;;;;;4979693;28;19920;-79
2021/12/28 10:34:48;;;;;;;;;;;11.20;99.90;;;;;;4997686;28;19949;-83
2021/12/28 10:37:18;;;;;;;;;;;11.10;99.90;;;;;;4998369;28;19941;-79
2021/12/28 10:39:45;;;;;;;;;;;11.10;99.90;;;;;;4995685;28;19921;-79
2021/12/28 10:42:31;;;;;;;;;;;11.10;99.90;;;;;;4996673;28;20355;-78
2021/12/28 10:44:57;;;;;;;;;;;11.10;99.90;;;;;;4996246;28;20289;-78
2021/12/28 10:47:24;;;;;;;;;;;11.10;99.90;;;;;;4996964;28;19910;-81
2021/12/28 10:49:50;;;;;;;;;;;11.20;99.90;;;;;;4996521;28;19912;-84
2021/12/28 10:52:29;;;;;;;;;;;11.30;99.90;;;;;;4980103;28;19910;-79
2021/12/28 10:55:13;;;;;;;;;;;11.40;99.90;;;;;;4999786;28;19910;-78
2021/12/28 10:57:40;;;;;;;;;;;11.40;99.90;;;;;;4997116;28;19913;-78
2021/12/28 11:00:25;;;;;;;;;;;11.50;99.90;;;;;;4996883;28;19973;-79
2021/12/28 11:03:10;;;;;;;;;;;11.40;99.90;;;;;;4996653;28;19910;-84
2021/12/28 11:05:35;;;;;;;;;;;11.40;99.90;;;;;;4996872;28;19906;-78
2021/12/28 11:08:01;;;;;;;;;;;11.40;99.90;;;;;;4995344;28;19906;-78
2021/12/28 11:10:28;;;;;;;;;;;11.40;99.90;;;;;;4980379;28;20009;-78
2021/12/28 11:12:57;;;;;;;;;;;11.40;99.90;;;;;;4996804;28;20377;-82
2021/12/28 11:15:24;;;;;;;;;;;11.40;99.90;;;;;;4996035;28;19906;-77
2021/12/28 11:17:50;;;;;;;;;;;11.40;99.90;;;;;;4995291;28;20247;-76
2021/12/28 11:20:16;;;;;;;;;;;11.40;99.90;;;;;;4994683;28;19945;-76
2021/12/28 11:23:01;;;;;;;;;;;11.30;99.90;;;;;;4994653;28;19960;-81
2021/12/28 11:25:27;;;;;;;;;;;11.30;99.90;;;;;;4996312;28;20007;-77
2021/12/28 11:28:12;;;;;;;;;;;11.30;99.90;;;;;;4994836;28;19976;-82
2021/12/28 11:30:39;;;;;;;;;;;11.20;99.90;;;;;;4994835;28;19905;-78
2021/12/28 11:33:08;;;;;;;;;;;11.20;99.90;;;;;;4995290;28;19953;-78
2021/12/28 11:35:34;;;;;;;;;;;11.20;99.90;;;;;;4994151;28;20017;-78
2021/12/28 11:38:00;;;;;;;;;;;11.20;99.90;;;;;;4977182;28;19934;-78
2021/12/28 11:40:26;;;;;;;;;;;11.20;99.90;;;;;;4994459;28;20406;-77
2021/12/28 11:42:52;;;;;;;;;;;11.20;99.90;;;;;;4993094;28;19906;-78
2021/12/28 11:45:19;;;;;;;;;;;11.20;99.90;;;;;;4992600;28;19949;-78
2021/12/28 11:47:45;;;;;;;;;;;11.20;99.90;;;;;;4994370;28;19913;-78
2021/12/28 11:50:11;;;;;;;;;;;11.20;99.90;;;;;;4993453;28;19909;-78
2021/12/28 11:52:37;;;;;;;;;;;11.20;99.90;;;;;;4995315;28;19913;-78
2021/12/28 11:55:03;;;;;;;;;;;11.20;99.90;;;;;;4980561;28;19932;-78
2021/12/28 11:57:30;;;;;;;;;;;11.20;99.90;;;;;;4997627;28;19917;-78
2021/12/28 12:00:02;;;;;;;;;;;11.20;99.90;;;;;;4997601;28;19925;-78
2021/12/28 12:02:54;;;;;;;;;;;11.20;99.90;;;;;;4997053;28;19910;-78
2021/12/28 12:05:24;;;;;;;;;;;11.20;99.90;;;;;;4995707;28;19941;-77
2021/12/28 12:08:03;;;;;;;;;;;11.20;99.90;;;;;;4997199;28;20400;-77
2021/12/28 12:10:30;;;;;;;;;;;11.20;99.90;;;;;;4997143;28;20346;-78
2021/12/28 12:12:58;;;;;;;;;;;11.20;99.90;;;;;;4996740;28;20362;-77
2021/12/28 12:15:25;;;;;;;;;;;11.20;99.90;;;;;;4997057;28;19913;-79
2021/12/28 12:17:55;;;;;;;;;;;11.20;99.90;;;;;;4997157;28;19905;-79
2021/12/28 12:20:23;;;;;;;;;;;11.20;99.90;;;;;;4997550;28;19912;-79
2021/12/28 12:22:49;;;;;;;;;;;11.20;99.90;;;;;;4999065;28;19916;-80
2021/12/28 12:25:16;;;;;;;;;;;11.10;99.90;;;;;;4999139;28;19906;-79
2021/12/28 12:27:47;;;;;;;;;;;11.10;99.90;;;;;;5001798;28;20267;-79
2021/12/28 12:30:23;;;;;;;;;;;11.10;99.90;;;;;;5000593;28;19906;-79
2021/12/28 12:33:05;;;;;;;;;;;11.00;99.90;;;;;;5001693;28;19972;-79
2021/12/28 12:35:40;;;;;;;;;;;11.00;99.90;;;;;;5002518;28;20004;-77
2021/12/28 12:38:12;;;;;;;;;;;11.00;99.90;;;;;;4999481;28;19909;-78
2021/12/28 12:40:50;;;;;;;;;;;10.90;99.90;;;;;;5001414;28;19917;-77
2021/12/28 12:43:16;;;;;;;;;;;10.90;99.90;;;;;;5002232;28;19906;-78
2021/12/28 12:45:51;;;;;;;;;;;10.90;99.90;;;;;;4998942;28;19917;-79
2021/12/28 12:48:38;;;;;;;;;;;10.90;99.90;;;;;;4998090;28;19913;-78
2021/12/28 12:51:18;;;;;;;;;;;10.90;99.90;;;;;;5000793;28;19916;-83
2021/12/28 12:53:48;;;;;;;;;;;10.90;99.90;;;;;;4996027;28;19906;-79
2021/12/28 12:56:15;;;;;;;;;;;10.90;99.90;;;;;;4996046;28;19905;-78
2021/12/28 12:58:45;;;;;;;;;;;10.90;99.90;;;;;;4995711;28;19910;-78
2021/12/28 13:01:26;;;;;;;;;;;10.90;99.90;;;;;;4995743;28;19964;-78
2021/12/28 13:03:52;;;;;;;;;;;10.90;99.90;;;;;;4994546;28;19957;-77
2021/12/28 13:06:36;;;;;;;;;;;11.00;99.90;;;;;;4996649;28;19906;-78
2021/12/28 13:09:04;;;;;;;;;;;11.10;99.90;;;;;;4995665;28;20361;-79
2021/12/28 13:11:31;;;;;;;;;;;11.20;99.90;;;;;;4995344;28;19956;-79
2021/12/28 13:13:56;;;;;;;;;;;11.30;99.90;;;;;;4995579;28;19976;-79
2021/12/28 13:16:22;;;;;;;;;;;11.40;99.90;;;;;;4996906;28;19913;-78
2021/12/28 13:18:47;;;;;;;;;;;11.40;99.90;;;;;;4995593;28;20338;-78
2021/12/28 13:21:18;;;;;;;;;;;11.40;99.90;;;;;;4979130;28;19914;-78
2021/12/28 13:24:04;;;;;;;;;;;11.50;99.90;;;;;;4995594;28;20254;-78
2021/12/28 13:26:40;;;;;;;;;;;11.40;99.90;;;;;;4997075;28;20012;-79
2021/12/28 13:29:05;;;;;;;;;;;11.30;99.90;;;;;;4995417;28;19906;-80
2021/12/28 13:31:31;;;;;;;;;;;11.30;99.90;;;;;;4995254;28;20294;-78
2021/12/28 13:33:57;;;;;;;;;;;11.30;99.90;;;;;;4995897;28;20377;-79
2021/12/28 13:36:23;;;;;;;;;;;11.40;99.90;;;;;;4994850;28;20012;-78
2021/12/28 13:38:49;;;;;;;;;;;11.40;99.30;;;;;;4996852;28;19925;-78
2021/12/28 13:41:14;;;;;;;;;;;11.40;99.30;;;;;;4995092;28;20286;-78
2021/12/28 13:43:40;;;;;;;;;;;11.40;99.40;;;;;;4978757;28;20289;-77
2021/12/28 13:46:07;;;;;;;;;;;11.40;99.40;;;;;;4995829;28;20386;-77
2021/12/28 13:48:33;;;;;;;;;;;11.50;99.00;;;;;;4996025;28;19975;-78
2021/12/28 13:51:07;;;;;;;;;;;11.60;98.40;;;;;;4994853;28;19958;-77
2021/12/28 13:53:34;;;;;;;;;;;11.60;98.00;;;;;;4995378;28;19953;-77
2021/12/28 13:56:02;;;;;;;;;;;11.60;98.20;;;;;;4995974;28;19905;-78
2021/12/28 13:58:37;;;;;;;;;;;11.60;98.20;;;;;;4994327;28;20000;-78
2021/12/28 14:01:05;;;;;;;;;;;11.60;98.20;;;;;;4995797;28;19914;-78
2021/12/28 14:03:31;;;;;;;;;;;11.50;97.90;;;;;;4994543;28;19932;-77
2021/12/28 14:05:57;;;;;;;;;;;11.40;98.30;;;;;;4995717;28;20303;-76
2021/12/28 14:08:23;;;;;;;;;;;11.30;98.00;;;;;;4995210;28;19996;-78
2021/12/28 14:10:52;;;;;;;;;;;11.10;98.50;;;;;;4995231;28;19905;-78
2021/12/28 14:13:19;;;;;;;;;;;11.00;98.30;;;;;;4994609;28;19912;-78
2021/12/28 14:15:58;;;;;;;;;;;11.00;98.30;;;;;;4995314;28;19905;-77
2021/12/28 14:18:25;;;;;;;;;;;10.90;98.80;;;;;;4993969;28;19906;-77
2021/12/28 14:20:51;;;;;;;;;;;10.80;99.40;;;;;;4994460;28;19910;-76
2021/12/28 14:23:27;;;;;;;;;;;10.60;99.90;;;;;;4994019;28;20299;-77
2021/12/28 14:26:02;;;;;;;;;;;10.40;99.90;;;;;;4995468;28;19906;-75
2021/12/28 14:28:28;;;;;;;;;;;10.20;99.90;;;;;;4994332;28;19906;-75
2021/12/28 14:31:08;;;;;;;;;;;10.00;99.90;;;;;;4995103;28;20274;-75